WetterOnline ( https://www.wetteronline.de )

Wetter aktuell Heidelberg

Aktuelles Wetter: Mannheim (100m)

6-stündlich | Neueste Meldungen
Ortszeit Temperatur Wetter
Sa, 30.05. 8:00 16.1° C wolkenlos
Sa, 30.05. 2:00 14.7° C wolkenlos
Fr, 29.05. 20:00 20.3° C wolkenlos
Fr, 29.05. 14:00 21.5° C leicht bewölkt
Fr, 29.05. 8:00 13.8° C wolkenlos
Fr, 29.05. 2:00 10.1° C wolkenlos
Do, 28.05. 20:00 20.9° C wolkenlos
Do, 28.05. 14:00 21.7° C fast wolkenlos
Ortszeit Temperatur Wetter
Sa, 30.05. 13:30 21.2° C leicht bewölkt
Sa, 30.05. 13:20 21.2° C leicht bewölkt
Sa, 30.05. 13:10 21.6° C leicht bewölkt
Sa, 30.05. 13:00 20.3° C leicht bewölkt
Sa, 30.05. 12:50 20.3° C leicht bewölkt
Sa, 30.05. 12:40 20.5° C leicht bewölkt
Sa, 30.05. 12:30 21.0° C fast wolkenlos
Sa, 30.05. 12:00 20.2° C wolkenlos
Sa, 30.05. 11:30 19.6° C wolkenlos
Sa, 30.05. 11:00 19.8° C wolkenlos
Sa, 30.05. 10:30 19.3° C wolkenlos
Sa, 30.05. 10:00 19.2° C wolkenlos
Ortszeit Relative Feuchte Sichtweite
Sa, 30.05. 8:00 47% 45 km
Sa, 30.05. 2:00 45% 70 km
Fr, 29.05. 20:00 31% 70 km
Fr, 29.05. 14:00 32% 22 km
Fr, 29.05. 8:00 51% 17 km
Fr, 29.05. 2:00 60% 45 km
Do, 28.05. 20:00 25% 29 km
Do, 28.05. 14:00 34% 14 km
Ortszeit Relative Feuchte Sichtweite
Sa, 30.05. 13:30 25% 15 km
Sa, 30.05. 13:20 25% -
Sa, 30.05. 13:10 24% -
Sa, 30.05. 13:00 33% 50 km
Sa, 30.05. 12:50 33% -
Sa, 30.05. 12:40 35% -
Sa, 30.05. 12:30 35% 18 km
Sa, 30.05. 12:00 35% 18 km
Sa, 30.05. 11:30 35% 18 km
Sa, 30.05. 11:00 35% 27 km
Sa, 30.05. 10:30 34% 40 km
Sa, 30.05. 10:00 38% 30 km
Ortszeit Niederschlagsmenge Niederschlagsart
Sa, 30.05. 8:00 0.0 l/m2 in 12 Std. -
Sa, 30.05. 2:00 0.0 l/m2 in 6 Std. -
Fr, 29.05. 20:00 0.0 l/m2 in 12 Std. -
Fr, 29.05. 14:00 0.0 l/m2 in 6 Std. -
Fr, 29.05. 8:00 0.0 l/m2 in 12 Std. -
Fr, 29.05. 2:00 0.0 l/m2 in 6 Std. -
Do, 28.05. 20:00 0.0 l/m2 in 12 Std. -
Do, 28.05. 14:00 0.0 l/m2 in 6 Std. -
Ortszeit Niederschlagsmenge Niederschlagsart
Sa, 30.05. 13:30 0.0 l/m2 in 1 Std. -
Sa, 30.05. 13:20 keine Meldung -
Sa, 30.05. 13:10 keine Meldung -
Sa, 30.05. 13:00 0.0 l/m2 in 1 Std. -
Sa, 30.05. 12:50 keine Meldung -
Sa, 30.05. 12:40 keine Meldung -
Sa, 30.05. 12:30 0.0 l/m2 in 1 Std. -
Sa, 30.05. 12:00 0.0 l/m2 in 1 Std. -
Sa, 30.05. 11:30 0.0 l/m2 in 1 Std. -
Sa, 30.05. 11:00 0.0 l/m2 in 1 Std. -
Sa, 30.05. 10:30 0.0 l/m2 in 1 Std. -
Sa, 30.05. 10:00 0.0 l/m2 in 1 Std. -
Ortszeit Stärke Spitze Richtung
km/h Bft. km/h Grad Sektor
Sa, 30.05. 8:00 6 1 20 50° NO
Sa, 30.05. 2:00 9 2 19 20° N
Fr, 29.05. 20:00 13 3 30 70° O
Fr, 29.05. 14:00 13 3 33 20° N
Fr, 29.05. 8:00 6 1 15 320° NW
Fr, 29.05. 2:00 11 2 32 350° N
Do, 28.05. 20:00 17 3 41 10° N
Do, 28.05. 14:00 14 3 40 360° N
Ortszeit Stärke Spitze Richtung
km/h Bft. km/h Grad Sektor
Sa, 30.05. 13:30 22 4 36 60° NO
Sa, 30.05. 13:20 22 4 - 60° NO
Sa, 30.05. 13:10 15 3 - 60° NO
Sa, 30.05. 13:00 14 3 36 30° NO
Sa, 30.05. 12:50 14 3 - 30° NO
Sa, 30.05. 12:40 13 3 - 60° NO
Sa, 30.05. 12:30 17 3 33 10° N
Sa, 30.05. 12:00 20 4 33 20° N
Sa, 30.05. 11:30 18 3 32 20° N
Sa, 30.05. 11:00 13 3 30 70° O
Sa, 30.05. 10:30 14 3 25 40° NO
Sa, 30.05. 10:00 13 3 22 50° NO
Ortszeit Untergrenze Bedeckung Gattung
total tief tief mittel hoch
Sa, 30.05. 8:00 - 0/8 0/8 - - -
Sa, 30.05. 2:00 - 0/8 0/8 - - -
Fr, 29.05. 20:00 - 0/8 0/8 - - -
Fr, 29.05. 14:00 2100 m 3/8 3/8 - - -
Fr, 29.05. 8:00 - 0/8 0/8 - - -
Fr, 29.05. 2:00 - 0/8 0/8 - - -
Do, 28.05. 20:00 - 0/8 0/8 - - -
Do, 28.05. 14:00 1800 m 1/8 1/8 - - -
Ortszeit Bedeckungsgrad in Achtel und Wolkenuntergrenze
Sa, 30.05. 13:30 1(2100m)
Sa, 30.05. 13:20 1(2100m) 2(7200m)
Sa, 30.05. 13:10 3(2100m)
Sa, 30.05. 13:00 4(1800m)
Sa, 30.05. 12:50 4(1800m)
Sa, 30.05. 12:40 3(1800m)
Sa, 30.05. 12:30 1(1800m)
Sa, 30.05. 12:00 1(1800m)
Sa, 30.05. 11:30 keine Wolken
Sa, 30.05. 11:00 keine Wolken
Sa, 30.05. 10:30 keine Wolken
Sa, 30.05. 10:00 keine Wolken
Ortszeit Luftdruck NN (hPa) Tendenz (hPa in 3 Std.)
Sa, 30.05. 8:00 1023 + 0,5
Sa, 30.05. 2:00 1023 - 0,1
Fr, 29.05. 20:00 1023 - 0,9
Fr, 29.05. 14:00 1025 - 1,5
Fr, 29.05. 8:00 1028 0,0
Fr, 29.05. 2:00 1028 + 0,1
Do, 28.05. 20:00 1027 - 0,6
Do, 28.05. 14:00 1029 - 1,2
Ortszeit Luftdruck NN (hPa) Tendenz (hPa in 3 Std.)
Sa, 30.05. 13:30 1021 - 0,9
Sa, 30.05. 13:20 1021 keine Meldung
Sa, 30.05. 13:10 1021 keine Meldung
Sa, 30.05. 13:00 1021 - 1,1
Sa, 30.05. 12:50 1021 keine Meldung
Sa, 30.05. 12:40 1021 keine Meldung
Sa, 30.05. 12:30 1022 - 1,0
Sa, 30.05. 12:00 1022 - 0,9
Sa, 30.05. 11:30 1022 - 0,7
Sa, 30.05. 11:00 1022 - 0,7
Sa, 30.05. 10:30 1022 - 0,6
Sa, 30.05. 10:00 1023 - 0,1
Ortszeit Schneehöhe (cm)
Sa, 30.05. 8:00 -
Sa, 30.05. 2:00 -
Fr, 29.05. 20:00 -
Fr, 29.05. 14:00 -
Fr, 29.05. 8:00 -
Fr, 29.05. 2:00 -
Do, 28.05. 20:00 -
Do, 28.05. 14:00 -
Ortszeit Schneehöhe (cm)
Sa, 30.05. 13:30 -
Sa, 30.05. 13:20 -
Sa, 30.05. 13:10 -
Sa, 30.05. 13:00 -
Sa, 30.05. 12:50 -
Sa, 30.05. 12:40 -
Sa, 30.05. 12:30 -
Sa, 30.05. 12:00 -
Sa, 30.05. 11:30 -
Sa, 30.05. 11:00 -
Sa, 30.05. 10:30 -
Sa, 30.05. 10:00 -
Link zu dieser Seite / Seite empfehlen

Das Wetter in ...